sensor_id;sensor_type;location;lat;lon;timestamp;P1;durP1;ratioP1;P2;durP2;ratioP2
51961;SDS011;37986;51.238;17.128;2022-09-29T18:51:20;57.75;;;29.75;;
51961;SDS011;37986;51.238;17.128;2022-09-29T18:53:46;52.08;;;20.82;;
51961;SDS011;37986;51.238;17.128;2022-09-29T18:56:13;45.57;;;19.60;;
51961;SDS011;37986;51.238;17.128;2022-09-29T18:58:41;30.48;;;13.05;;
51961;SDS011;37986;51.238;17.128;2022-09-29T19:01:09;59.70;;;24.87;;
51961;SDS011;37986;51.238;17.128;2022-09-29T19:03:39;118.33;;;62.00;;
51961;SDS011;37986;51.238;17.128;2022-09-29T19:06:05;118.00;;;69.37;;
51961;SDS011;37986;51.238;17.128;2022-09-29T19:08:33;103.62;;;66.72;;
51961;SDS011;37986;51.238;17.128;2022-09-29T19:10:59;84.95;;;54.98;;
51961;SDS011;37986;51.238;17.128;2022-09-29T19:13:26;97.27;;;55.05;;
51961;SDS011;37986;51.238;17.128;2022-09-29T19:15:54;44.03;;;28.70;;
51961;SDS011;37986;51.238;17.128;2022-09-29T19:18:23;47.03;;;30.37;;
51961;SDS011;37986;51.238;17.128;2022-09-29T19:20:51;45.43;;;26.00;;
51961;SDS011;37986;51.238;17.128;2022-09-29T19:23:20;44.75;;;25.00;;
51961;SDS011;37986;51.238;17.128;2022-09-29T19:25:48;62.00;;;34.10;;
51961;SDS011;37986;51.238;17.128;2022-09-29T19:28:16;53.65;;;32.30;;
51961;SDS011;37986;51.238;17.128;2022-09-29T19:30:43;53.83;;;35.43;;
51961;SDS011;37986;51.238;17.128;2022-09-29T19:33:12;70.20;;;52.17;;
51961;SDS011;37986;51.238;17.128;2022-09-29T19:35:45;51.40;;;38.27;;
51961;SDS011;37986;51.238;17.128;2022-09-29T19:38:15;51.68;;;34.33;;
51961;SDS011;37986;51.238;17.128;2022-09-29T19:40:42;52.23;;;39.35;;
51961;SDS011;37986;51.238;17.128;2022-09-29T19:43:10;53.50;;;38.23;;
51961;SDS011;37986;51.238;17.128;2022-09-29T19:45:38;54.88;;;38.45;;
51961;SDS011;37986;51.238;17.128;2022-09-29T19:48:05;49.88;;;33.53;;
51961;SDS011;37986;51.238;17.128;2022-09-29T19:50:35;35.05;;;23.57;;
51961;SDS011;37986;51.238;17.128;2022-09-29T19:53:22;28.65;;;20.75;;
51961;SDS011;37986;51.238;17.128;2022-09-29T19:55:48;43.63;;;29.70;;
51961;SDS011;37986;51.238;17.128;2022-09-29T19:58:16;30.60;;;21.77;;
51961;SDS011;37986;51.238;17.128;2022-09-29T20:00:42;30.60;;;21.75;;
51961;SDS011;37986;51.238;17.128;2022-09-29T20:03:09;30.25;;;23.10;;
51961;SDS011;37986;51.238;17.128;2022-09-29T20:05:35;29.18;;;20.62;;
51961;SDS011;37986;51.238;17.128;2022-09-29T20:08:02;22.82;;;17.15;;
51961;SDS011;37986;51.238;17.128;2022-09-29T20:10:29;30.80;;;22.22;;
51961;SDS011;37986;51.238;17.128;2022-09-29T20:12:55;26.93;;;19.90;;
51961;SDS011;37986;51.238;17.128;2022-09-29T20:15:21;22.25;;;17.67;;
51961;SDS011;37986;51.238;17.128;2022-09-29T20:17:47;29.12;;;20.95;;
51961;SDS011;37986;51.238;17.128;2022-09-29T20:20:14;53.75;;;37.30;;
51961;SDS011;37986;51.238;17.128;2022-09-29T20:22:41;46.73;;;31.75;;
51961;SDS011;37986;51.238;17.128;2022-09-29T20:25:08;38.88;;;26.55;;
51961;SDS011;37986;51.238;17.128;2022-09-29T20:27:35;125.15;;;71.42;;
51961;SDS011;37986;51.238;17.128;2022-09-29T20:30:02;80.47;;;48.10;;
51961;SDS011;37986;51.238;17.128;2022-09-29T20:32:29;41.88;;;26.85;;
51961;SDS011;37986;51.238;17.128;2022-09-29T20:34:57;43.75;;;27.05;;
51961;SDS011;37986;51.238;17.128;2022-09-29T20:37:23;43.07;;;28.87;;
51961;SDS011;37986;51.238;17.128;2022-09-29T20:39:51;40.28;;;29.18;;
51961;SDS011;37986;51.238;17.128;2022-09-29T20:42:17;9.18;;;4.55;;
51961;SDS011;37986;51.238;17.128;2022-09-29T20:44:43;3.40;;;2.57;;
51961;SDS011;37986;51.238;17.128;2022-09-29T20:47:09;4.00;;;3.30;;
51961;SDS011;37986;51.238;17.128;2022-09-29T20:49:35;2.02;;;1.80;;
51961;SDS011;37986;51.238;17.128;2022-09-29T20:52:02;4.30;;;3.12;;
51961;SDS011;37986;51.238;17.128;2022-09-29T20:54:28;4.70;;;4.20;;
51961;SDS011;37986;51.238;17.128;2022-09-29T20:56:54;20.40;;;6.53;;
51961;SDS011;37986;51.238;17.128;2022-09-29T20:59:20;12.70;;;3.37;;
51961;SDS011;37986;51.238;17.128;2022-09-29T21:01:49;9.60;;;5.60;;
51961;SDS011;37986;51.238;17.128;2022-09-29T21:04:17;2.10;;;1.40;;
51961;SDS011;37986;51.238;17.128;2022-09-29T21:06:46;5.17;;;2.17;;
51961;SDS011;37986;51.238;17.128;2022-09-29T21:09:17;6.10;;;3.58;;
51961;SDS011;37986;51.238;17.128;2022-09-29T21:11:46;10.40;;;5.67;;
51961;SDS011;37986;51.238;17.128;2022-09-29T21:14:18;9.70;;;5.60;;
51961;SDS011;37986;51.238;17.128;2022-09-29T21:16:46;8.93;;;3.70;;
51961;SDS011;37986;51.238;17.128;2022-09-29T21:19:16;11.18;;;3.75;;
51961;SDS011;37986;51.238;17.128;2022-09-29T21:21:43;6.25;;;2.98;;
51961;SDS011;37986;51.238;17.128;2022-09-29T21:24:10;6.90;;;3.77;;
51961;SDS011;37986;51.238;17.128;2022-09-29T21:26:39;3.33;;;2.25;;
51961;SDS011;37986;51.238;17.128;2022-09-29T21:29:06;3.08;;;1.85;;
51961;SDS011;37986;51.238;17.128;2022-09-29T21:31:34;7.45;;;4.53;;
51961;SDS011;37986;51.238;17.128;2022-09-29T21:34:02;1.85;;;1.75;;
51961;SDS011;37986;51.238;17.128;2022-09-29T21:36:31;7.15;;;2.10;;
51961;SDS011;37986;51.238;17.128;2022-09-29T21:38:59;1.90;;;1.72;;
51961;SDS011;37986;51.238;17.128;2022-09-29T21:41:27;1.95;;;1.32;;
51961;SDS011;37986;51.238;17.128;2022-09-29T21:43:59;3.12;;;1.95;;
51961;SDS011;37986;51.238;17.128;2022-09-29T21:46:33;2.08;;;1.80;;
51961;SDS011;37986;51.238;17.128;2022-09-29T21:49:00;1.80;;;1.70;;
51961;SDS011;37986;51.238;17.128;2022-09-29T21:51:33;8.68;;;3.58;;
51961;SDS011;37986;51.238;17.128;2022-09-29T21:54:00;6.62;;;2.60;;
51961;SDS011;37986;51.238;17.128;2022-09-29T21:56:33;4.95;;;1.82;;
51961;SDS011;37986;51.238;17.128;2022-09-29T21:59:03;5.17;;;2.55;;
51961;SDS011;37986;51.238;17.128;2022-09-29T22:01:31;6.85;;;3.50;;
51961;SDS011;37986;51.238;17.128;2022-09-29T22:03:57;8.23;;;2.63;;
51961;SDS011;37986;51.238;17.128;2022-09-29T22:06:30;4.35;;;2.35;;
51961;SDS011;37986;51.238;17.128;2022-09-29T22:08:58;3.58;;;2.17;;
51961;SDS011;37986;51.238;17.128;2022-09-29T22:11:26;1.27;;;0.90;;
51961;SDS011;37986;51.238;17.128;2022-09-29T22:13:59;4.92;;;2.87;;
51961;SDS011;37986;51.238;17.128;2022-09-29T22:16:26;2.42;;;1.12;;
51961;SDS011;37986;51.238;17.128;2022-09-29T22:18:55;5.70;;;2.95;;
51961;SDS011;37986;51.238;17.128;2022-09-29T22:21:24;2.08;;;1.98;;
51961;SDS011;37986;51.238;17.128;2022-09-29T22:23:54;6.90;;;3.02;;
51961;SDS011;37986;51.238;17.128;2022-09-29T22:26:22;1.90;;;1.45;;
51961;SDS011;37986;51.238;17.128;2022-09-29T22:28:48;6.47;;;3.83;;
51961;SDS011;37986;51.238;17.128;2022-09-29T22:31:16;8.75;;;4.05;;
51961;SDS011;37986;51.238;17.128;2022-09-29T22:33:42;6.67;;;3.45;;
51961;SDS011;37986;51.238;17.128;2022-09-29T22:36:09;6.12;;;3.52;;
51961;SDS011;37986;51.238;17.128;2022-09-29T22:38:37;21.68;;;3.10;;
51961;SDS011;37986;51.238;17.128;2022-09-29T22:41:09;4.45;;;2.20;;
51961;SDS011;37986;51.238;17.128;2022-09-29T22:46:04;7.37;;;2.57;;
51961;SDS011;37986;51.238;17.128;2022-09-29T22:48:33;7.50;;;4.75;;
51961;SDS011;37986;51.238;17.128;2022-09-29T22:51:00;2.27;;;1.98;;
51961;SDS011;37986;51.238;17.128;2022-09-29T22:53:27;8.83;;;6.37;;
51961;SDS011;37986;51.238;17.128;2022-09-29T22:55:53;9.70;;;5.63;;
51961;SDS011;37986;51.238;17.128;2022-09-29T22:58:19;5.97;;;3.63;;
51961;SDS011;37986;51.238;17.128;2022-09-29T23:00:59;6.40;;;3.00;;
51961;SDS011;37986;51.238;17.128;2022-09-29T23:03:30;3.65;;;2.70;;
51961;SDS011;37986;51.238;17.128;2022-09-29T23:05:57;4.37;;;2.05;;
51961;SDS011;37986;51.238;17.128;2022-09-29T23:08:24;10.85;;;4.55;;
51961;SDS011;37986;51.238;17.128;2022-09-29T23:10:51;5.87;;;4.17;;
51961;SDS011;37986;51.238;17.128;2022-09-29T23:13:24;6.22;;;2.42;;
51961;SDS011;37986;51.238;17.128;2022-09-29T23:15:48;2.40;;;2.20;;
51961;SDS011;37986;51.238;17.128;2022-09-29T23:18:15;4.78;;;2.02;;
51961;SDS011;37986;51.238;17.128;2022-09-29T23:20:42;6.35;;;3.58;;
51961;SDS011;37986;51.238;17.128;2022-09-29T23:23:08;2.67;;;2.20;;
51961;SDS011;37986;51.238;17.128;2022-09-29T23:25:34;12.27;;;4.37;;
51961;SDS011;37986;51.238;17.128;2022-09-29T23:28:02;6.72;;;3.33;;
51961;SDS011;37986;51.238;17.128;2022-09-29T23:30:30;2.67;;;2.08;;
51961;SDS011;37986;51.238;17.128;2022-09-29T23:33:00;5.40;;;2.58;;
51961;SDS011;37986;51.238;17.128;2022-09-29T23:35:27;2.27;;;2.08;;
51961;SDS011;37986;51.238;17.128;2022-09-29T23:37:53;2.07;;;1.90;;
51961;SDS011;37986;51.238;17.128;2022-09-29T23:40:37;3.00;;;2.12;;
51961;SDS011;37986;51.238;17.128;2022-09-29T23:43:03;4.83;;;2.98;;
51961;SDS011;37986;51.238;17.128;2022-09-29T23:45:30;5.58;;;2.87;;
51961;SDS011;37986;51.238;17.128;2022-09-29T23:47:56;7.83;;;2.63;;
51961;SDS011;37986;51.238;17.128;2022-09-29T23:50:21;4.77;;;3.73;;
51961;SDS011;37986;51.238;17.128;2022-09-29T23:52:47;4.83;;;2.93;;
51961;SDS011;37986;51.238;17.128;2022-09-29T23:55:13;3.08;;;2.85;;
51961;SDS011;37986;51.238;17.128;2022-09-29T23:57:40;4.50;;;2.08;;
